EFSA

Savonlinna Airport

Savonlinna, Finland
METAR EFSA 240350Z AUTO 23002KT CAVOK 03/03 Q0998
Observed Flight Rules
Sep-24 @ 03:50 UTC (24 minutes ago) Visual Flight Rules
Wind Visibility Clouds
230° at 2 knots 10,000+ meters
  • Clear skies
Temperatures Readings
Current 3°C / 37°F
Dewpoint 3°C / 37°F
Humidity 100%
Altimeter 29.47" Hg
Pressure 998 hPa
Elevation 95
METAR EFSA 240350Z AUTO 23002KT CAVOK 03/03 Q0998
Observed Flight Rules
Sep-24 @ 03:50 UTC
(24 minutes ago)
VFR
Wind Visibility
230° at 2 knots 10,000+ meters
Clouds
  • Clear skies
Temperature Dewpoint
3°C / 37°F 3°C / 37°F
Humidity Altimeter Pressure
100% 29.47" Hg 998 hPa